Flight Track Log - Related Links

Times and Time Zones

All times are in EDT time to prevent confusion due to time zone crossing. See the B-2086 flight status page for this flight to view local times or setup timezone preferences in your user account.

Time Position Orientation Groundspeed Altitude Reporting Facility
EDT Latitude Longitude Course Direction KTS MPH feet Rate Location/Type
Sat 09:22:00 PM 40.4372 116.7966 24° Northeast  Level FlightAware Approximate
Sat 09:23:00 PM 40.5562 116.8678 24° Northeast  Level FlightAware Approximate
Sat 09:24:00 PM 40.6751 116.9392 24° Northeast  Level FlightAware Approximate
Sat 09:25:00 PM 40.7940 117.0109 25° Northeast  Level FlightAware Approximate
Sat 09:26:00 PM 40.9128 117.0828 25° Northeast  Level FlightAware Approximate
Sat 09:27:00 PM 41.0316 117.1550 25° Northeast  Level FlightAware Approximate
Sat 09:28:00 PM 41.1503 117.2275 25° Northeast  Level FlightAware Approximate
Sat 09:29:00 PM 41.2690 117.3002 25° Northeast  Level FlightAware Approximate
Sat 09:30:00 PM 41.3877 117.3732 25° Northeast  Level FlightAware Approximate
Sat 09:31:00 PM 41.5063 117.4464 25° Northeast  Level FlightAware Approximate
Sat 09:32:00 PM 41.6248 117.5200 25° Northeast  Level FlightAware Approximate
Sat 09:33:00 PM 41.7434 117.5938 25° Northeast  Level FlightAware Approximate
Sat 09:34:00 PM 41.8503 117.6607 25° Northeast  Level FlightAware Approximate
Sat 09:35:00 PM 41.9687 117.7353 25° Northeast  Level FlightAware Approximate
Sat 09:36:00 PM 42.0869 117.8101 25° Northeast  Level FlightAware Approximate
Sat 09:37:00 PM 42.2052 117.8852 25° Northeast  Level FlightAware Approximate
Sat 09:38:00 PM 42.3234 117.9606 25° Northeast  Level FlightAware Approximate
Sat 09:39:00 PM 42.4415 118.0363 25° Northeast  Level FlightAware Approximate
Sat 09:40:00 PM 42.5596 118.1123 25° Northeast  Level FlightAware Approximate
Sat 09:41:00 PM 42.6777 118.1885 25° Northeast  Level FlightAware Approximate
Sat 09:42:00 PM 42.7956 118.2651 25° Northeast  Level FlightAware Approximate
Sat 09:43:00 PM 42.9136 118.3419 26° Northeast  Level FlightAware Approximate
Sat 09:44:00 PM 43.0314 118.4190 26° Northeast  Level FlightAware Approximate
Sat 09:45:00 PM 43.1493 118.4965 26° Northeast  Level FlightAware Approximate
Sat 09:46:00 PM 43.2671 118.5742 26° Northeast  Level FlightAware Approximate
Sat 09:47:00 PM 43.3848 118.6522 26° Northeast  Level FlightAware Approximate
Sat 09:48:00 PM 43.5025 118.7305 26° Northeast  Level FlightAware Approximate
Sat 09:49:00 PM 43.6201 118.8092 26° Northeast  Level FlightAware Approximate
Sat 09:50:00 PM 43.7376 118.8881 26° Northeast  Level FlightAware Approximate
Sat 09:51:00 PM 43.8551 118.9674 26° Northeast  Level FlightAware Approximate
Sat 09:52:00 PM 43.9726 119.0470 26° Northeast  Level FlightAware Approximate
Sat 09:53:00 PM 44.0900 119.1268 26° Northeast  Level FlightAware Approximate
Sat 09:54:00 PM 44.2073 119.2070 26° Northeast  Level FlightAware Approximate
Sat 09:55:00 PM 44.3246 119.2876 26° Northeast  Level FlightAware Approximate
Sat 09:56:00 PM 44.4419 119.3684 26° Northeast  Level FlightAware Approximate
Sat 09:57:00 PM 44.5590 119.4496 26° Northeast  Level FlightAware Approximate
Sat 09:58:00 PM 44.6762 119.5311 26° Northeast  Level FlightAware Approximate
Sat 09:59:00 PM 44.7932 119.6129 26° Northeast  Level FlightAware Approximate
Sat 10:00:00 PM 44.9102 119.6951 26° Northeast  Level FlightAware Approximate
Sat 10:01:00 PM 45.0271 119.7776 26° Northeast  Level FlightAware Approximate
Sat 10:02:00 PM 45.1440 119.8604 27° Northeast  Level FlightAware Approximate
Sat 10:03:00 PM 45.2608 119.9436 27° Northeast  Level FlightAware Approximate
Sat 10:04:00 PM 45.3776 120.0271 27° Northeast  Level FlightAware Approximate
Sat 10:05:00 PM 45.4943 120.1109 27° Northeast  Level FlightAware Approximate
Sat 10:06:00 PM 45.6110 120.1952 27° Northeast  Level FlightAware Approximate
Sat 10:07:00 PM 45.7275 120.2797 27° Northeast  Level FlightAware Approximate
Sat 10:08:00 PM 45.8440 120.3646 27° Northeast  Level FlightAware Approximate
Sat 10:09:00 PM 45.9605 120.4499 27° Northeast  Level FlightAware Approximate
Sat 10:10:00 PM 46.0769 120.5355 27° Northeast  Level FlightAware Approximate
Sat 10:11:00 PM 46.1932 120.6215 27° Northeast  Level FlightAware Approximate
Sat 10:12:00 PM 46.3094 120.7079 27° Northeast  Level FlightAware Approximate
Sat 10:13:00 PM 46.4256 120.7946 27° Northeast  Level FlightAware Approximate
Sat 10:14:00 PM 46.5418 120.8817 27° Northeast  Level FlightAware Approximate
Sat 10:15:00 PM 46.6578 120.9692 27° Northeast  Level FlightAware Approximate
Sat 10:16:00 PM 46.7738 121.0570 27° Northeast  Level FlightAware Approximate
Sat 10:17:00 PM 46.8897 121.1452 27° Northeast  Level FlightAware Approximate
Sat 10:18:00 PM 47.0056 121.2338 28° Northeast  Level FlightAware Approximate
Sat 10:19:00 PM 47.1214 121.3228 28° Northeast  Level FlightAware Approximate
Sat 10:20:00 PM 47.2371 121.4122 28° Northeast  Level FlightAware Approximate
Sat 10:21:00 PM 47.3527 121.5020 28° Northeast  Level FlightAware Approximate
Sat 10:22:00 PM 47.4683 121.5921 28° Northeast  Level FlightAware Approximate
Sat 10:23:00 PM 47.5838 121.6827 28° Northeast  Level FlightAware Approximate
Sat 10:24:00 PM 47.6993 121.7737 28° Northeast  Level FlightAware Approximate
Sat 10:25:00 PM 47.8146 121.8650 28° Northeast  Level FlightAware Approximate
Sat 10:26:00 PM 47.9300 121.9563 28° Northeast  Level FlightAware Approximate
Sat 10:27:00 PM 48.0454 122.0480 28° Northeast  Level FlightAware Approximate
Sat 10:28:00 PM 48.1608 122.1402 28° Northeast  Level FlightAware Approximate
Sat 10:29:00 PM 48.2760 122.2327 28° Northeast  Level FlightAware Approximate
Sat 10:30:00 PM 48.3912 122.3257 28° Northeast  Level FlightAware Approximate
Sat 10:31:00 PM 48.5062 122.4190 28° Northeast  Level FlightAware Approximate
Sat 10:32:00 PM 48.6213 122.5128 28° Northeast  Level FlightAware Approximate
Sat 10:33:00 PM 48.7360 122.6075 29° Northeast  Level FlightAware Approximate
Sat 10:34:00 PM 48.8507 122.7028 29° Northeast  Level FlightAware Approximate
Sat 10:35:00 PM 48.9652 122.7986 29° Northeast  Level FlightAware Approximate
Sat 10:36:00 PM 49.0797 122.8948 29° Northeast  Level FlightAware Approximate
Sat 10:37:00 PM 49.1940 122.9914 29° Northeast  Level FlightAware Approximate
Sat 10:38:00 PM 49.3083 123.0885 29° Northeast  Level FlightAware Approximate
Sat 10:39:00 PM 49.4226 123.1861 29° Northeast  Level FlightAware Approximate
Sat 10:40:00 PM 49.5367 123.2841 29° Northeast  Level FlightAware Approximate
Sat 10:41:00 PM 49.6507 123.3825 29° Northeast  Level FlightAware Approximate
Sat 10:42:00 PM 49.7647 123.4815 29° Northeast  Level FlightAware Approximate
Sat 10:43:00 PM 49.8786 123.5808 29° Northeast  Level FlightAware Approximate
Sat 10:44:00 PM 49.9924 123.6807 29° Northeast  Level FlightAware Approximate
Sat 10:45:00 PM 50.1061 123.7810 29° Northeast  Level FlightAware Approximate
Sat 10:46:00 PM 50.2197 123.8818 30° Northeast  Level FlightAware Approximate
Sat 10:47:00 PM 50.3333 123.9831 30° Northeast  Level FlightAware Approximate
Sat 10:48:00 PM 50.4467 124.0849 30° Northeast  Level FlightAware Approximate
Sat 10:49:00 PM 50.5601 124.1872 30° Northeast  Level FlightAware Approximate
Sat 10:50:00 PM 50.6733 124.2899 30° Northeast  Level FlightAware Approximate
Sat 10:51:00 PM 50.7865 124.3932 30° Northeast  Level FlightAware Approximate
Sat 10:52:00 PM 50.8996 124.4970 30° Northeast  Level FlightAware Approximate
Sat 10:53:00 PM 51.0126 124.6012 30° Northeast  Level FlightAware Approximate
Sat 10:54:00 PM 51.1255 124.7060 30° Northeast  Level FlightAware Approximate
Sat 10:55:00 PM 51.2383 124.8113 30° Northeast  Level FlightAware Approximate
Sat 10:55:07 PM 46.8900 130.6440 30° Northeast 532 612 31,100  Level FlightAware ADS-B
Sat 10:55:47 PM 46.9210 130.7630 69° East 532 612 31,100  Level FlightAware ADS-B
Sat 10:56:27 PM 46.9590 130.9040 68° East 528 608 31,100  Level FlightAware ADS-B
Sat 10:57:12 PM 47.0040 131.0760 69° East 528 608 31,100  Level FlightAware ADS-B
Sat 10:57:47 PM 47.0330 131.1860 69° East 530 610 31,100  Level FlightAware ADS-B
Sat 10:58:37 PM 47.0770 131.3570 69° East 529 609 31,100  Level FlightAware ADS-B
Sat 10:59:12 PM 47.1040 131.4600 69° East 527 606 31,100 -63 Level FlightAware ADS-B
Sat 11:00:12 PM 47.1600 131.6810 69° East 526 605 31,000 -63 Descending FlightAware ADS-B
Sat 11:00:47 PM 47.1940 131.8130 69° East 525 604 31,000  Level FlightAware ADS-B
Sat 11:01:42 PM 47.2360 131.9790 70° East 523 602 31,000  Level FlightAware ADS-B
Sat 11:02:22 PM 47.2690 132.1100 70° East 521 600 31,000  Level FlightAware ADS-B
Sat 11:02:52 PM 47.2950 132.2160 70° East 521 600 31,000  Level FlightAware ADS-B
Sat 11:03:47 PM 47.3440 132.4140 70° East 521 600 31,000  Level FlightAware ADS-B
Sat 11:04:22 PM 47.3750 132.5370 70° East 522 601 31,000  Level FlightAware ADS-B
Sat 11:05:07 PM 47.4110 132.6840 70° East 520 598 31,000  Level FlightAware ADS-B
Sat 11:05:47 PM 47.4440 132.8200 70° East 521 600 31,000  Level FlightAware ADS-B
Sat 11:06:27 PM 47.4740 132.9460 71° East 520 598 31,000  Level FlightAware ADS-B
Sat 11:07:12 PM 47.5090 133.0920 70° East 517 595 31,000  Level FlightAware ADS-B
Sat 11:07:52 PM 47.5410 133.2260 70° East 515 593 31,000  Level FlightAware ADS-B
Sat 11:08:37 PM 47.5830 133.4000 70° East 515 593 31,000  Level FlightAware ADS-B
Sat 11:09:22 PM 47.6140 133.5350 71° East 515 593 31,000  Level FlightAware ADS-B
Sat 11:10:02 PM 47.6410 133.6490 71° East 516 594 31,000  Level FlightAware ADS-B
Sat 11:10:42 PM 47.6750 133.7950 71° East 517 595 31,000  Level FlightAware ADS-B
Sat 11:11:22 PM 47.7070 133.9350 71° East 516 594 31,000  Level FlightAware ADS-B
Sat 11:12:07 PM 47.7390 134.0730 71° East 517 595 31,000  Level FlightAware ADS-B
Sat 11:12:47 PM 47.7720 134.2170 71° East 516 594 31,000  Level FlightAware ADS-B
Sat 11:13:32 PM 47.8070 134.3720 71° East 515 593 31,000  Level FlightAware ADS-B
Sat 11:14:07 PM 47.8350 134.4950 71° East 515 593 31,000  Level FlightAware ADS-B
Sat 11:14:52 PM 47.8770 134.6350 66° East 525 604 31,000  Level FlightAware ADS-B
Sat 11:15:12 PM 47.9150 134.6840 41° Northeast 537 618 31,000  Level FlightAware ADS-B
Sat 11:15:42 PM 47.9780 134.7400 31° Northeast 544 626 31,000  Level FlightAware ADS-B
Sat 11:16:32 PM 48.0780 134.8200 28° Northeast 545 627 31,000  Level FlightAware ADS-B
Sat 11:17:32 PM 48.2670 134.9750 29° Northeast 547 629 31,000  Level FlightAware ADS-B
Sat 11:18:02 PM 48.3310 135.0280 29° Northeast 548 631 31,000  Level FlightAware ADS-B
Sat 11:18:57 PM 48.4480 135.1270 29° Northeast 549 632 31,000  Level FlightAware ADS-B
Sat 11:19:37 PM 48.5300 135.2030 32° Northeast 548 631 31,000  Level FlightAware ADS-B
Sat 11:20:22 PM 48.6210 135.3220 41° Northeast 543 625 31,000  Level FlightAware ADS-B
Sat 11:21:02 PM 48.6930 135.4280 44° Northeast 543 625 31,000  Level FlightAware ADS-B
Sat 11:21:37 PM 48.7560 135.5210 44° Northeast 542 624 31,000  Level FlightAware ADS-B
Sat 11:22:27 PM 48.8480 135.6580 44° Northeast 542 624 31,000  Level FlightAware ADS-B
Sat 11:23:07 PM 48.9100 135.7510 45° Northeast 543 625 31,000  Level FlightAware ADS-B
Sat 11:23:52 PM 48.9940 135.8760 44° Northeast 543 625 31,000  Level FlightAware ADS-B
Sat 11:24:22 PM 49.0480 135.9580 45° Northeast 543 625 31,000  Level FlightAware ADS-B
Sat 11:25:07 PM 49.1000 136.0370 45° Northeast 543 625 31,000  Level FlightAware ADS-B
Sat 11:25:57 PM 49.1920 136.1780 45° Northeast 543 625 31,000  Level FlightAware ADS-B
Sat 11:26:37 PM 49.2610 136.2830 45° Northeast 543 625 31,000  Level FlightAware ADS-B
Sat 11:27:17 PM 49.3320 136.3940 46° Northeast 543 625 31,000  Level FlightAware ADS-B
Sat 11:27:57 PM 49.4060 136.5080 45° Northeast 544 626 31,000  Level FlightAware ADS-B
Sat 11:28:47 PM 49.4990 136.6240 39° Northeast 548 631 31,000  Level FlightAware ADS-B
Sat 11:29:22 PM 49.5790 136.7060 34° Northeast 550 633 31,000  Level FlightAware ADS-B
Sat 11:30:07 PM 49.6690 136.7980 33° Northeast 550 633 31,000  Level FlightAware ADS-B
Sat 11:30:47 PM 49.7550 136.8870 34° Northeast 551 634 31,000  Level FlightAware ADS-B
Sat 11:31:32 PM 49.8490 136.9840 34° Northeast 552 635 31,000  Level FlightAware ADS-B
Sat 11:32:12 PM 49.9360 137.0740 34° Northeast 552 635 31,000  Level FlightAware ADS-B
Sat 11:32:57 PM 50.0250 137.1680 34° Northeast 553 636 31,000  Level FlightAware ADS-B
Sat 11:33:37 PM 50.1180 137.2660 34° Northeast 554 638 31,000  Level FlightAware ADS-B
Sat 11:34:22 PM 50.2050 137.3590 34° Northeast 556 640 31,000  Level FlightAware ADS-B
Sat 11:34:57 PM 50.2830 137.4430 35° Northeast 557 641 31,000  Level FlightAware ADS-B
Sat 11:35:42 PM 50.3730 137.5400 34° Northeast 558 642 31,000  Level FlightAware ADS-B
Sat 11:36:42 PM 50.5110 137.7030 37° Northeast 559 643 31,000  Level FlightAware ADS-B
Sat 11:37:37 PM 50.6020 137.8160 38° Northeast 559 643 31,000  Level FlightAware ADS-B
Sat 11:38:42 PM 50.7730 138.0260 38° Northeast 560 644 31,000  Level FlightAware ADS-B
Sat 11:39:22 PM 50.8570 138.1290 38° Northeast 561 646 31,000  Level FlightAware ADS-B
Sat 11:40:12 PM 50.9580 138.2440 36° Northeast 565 650 31,000  Level FlightAware ADS-B
Sat 11:40:47 PM 51.0360 138.3250 33° Northeast 565 650 31,000  Level FlightAware ADS-B
Sat 11:41:27 PM 51.1200 138.4130 33° Northeast 565 650 31,000  Level FlightAware ADS-B
Sat 11:42:17 PM 51.2250 138.5230 33° Northeast 564 649 31,000  Level FlightAware ADS-B
Sat 11:42:52 PM 51.3070 138.6090 33° Northeast 565 650 31,000  Level FlightAware ADS-B
Sat 11:43:32 PM 51.3990 138.7070 34° Northeast 565 650 31,000  Level FlightAware ADS-B
Sat 11:44:22 PM 51.5030 138.8170 33° Northeast 565 650 31,000  Level FlightAware ADS-B
Sat 11:45:02 PM 51.5900 138.9100 34° Northeast 567 652 31,000  Level FlightAware ADS-B
Sat 11:45:42 PM 51.6790 139.0060 34° Northeast 568 654 31,000  Level FlightAware ADS-B
Sat 11:46:22 PM 51.7670 139.1000 33° Northeast 569 655 31,000  Level FlightAware ADS-B
Sat 11:47:12 PM 51.8720 139.2140 34° Northeast 570 656 31,000  Level FlightAware ADS-B
Sat 11:47:52 PM 51.9620 139.3120 34° Northeast 570 656 31,000  Level FlightAware ADS-B
Sat 11:48:27 PM 52.0370 139.3930 34° Northeast 571 657 31,000  Level FlightAware ADS-B
Sat 11:49:17 PM 52.1460 139.5110 34° Northeast 571 657 31,000  Level FlightAware ADS-B
Sat 11:49:57 PM 52.2390 139.6120 34° Northeast 572 658 31,000  Level FlightAware ADS-B
Sat 11:50:32 PM 52.3110 139.6910 34° Northeast 572 658 31,000  Level FlightAware ADS-B
Sat 11:51:22 PM 52.4190 139.8100 34° Northeast 573 659 31,000  Level FlightAware ADS-B
Sat 11:52:02 PM 52.5050 139.9060 34° Northeast 573 659 31,000  Level FlightAware ADS-B
Sat 11:52:42 PM 52.5800 139.9890 34° Northeast 573 659 31,000  Level FlightAware ADS-B
Sat 11:53:22 PM 52.6550 140.0720 34° Northeast 573 659 31,000  Level FlightAware ADS-B
Sat 11:54:12 PM 52.7480 140.1760 34° Northeast 573 659 31,000  Level FlightAware ADS-B
Sat 11:54:52 PM 52.8230 140.2600 34° Northeast 573 659 31,000  Level FlightAware ADS-B
Sat 11:55:32 PM 52.8970 140.3430 34° Northeast 573 659 31,000  Level FlightAware ADS-B
Sat 11:56:12 PM 52.9720 140.4270 34° Northeast 573 659 31,000  Level FlightAware ADS-B
Sat 11:56:52 PM 53.0470 140.5100 34° Northeast 573 659 31,000  Level FlightAware ADS-B
Sat 11:57:42 PM 53.1400 140.6150 34° Northeast 573 659 31,000  Level FlightAware ADS-B
Sat 11:58:22 PM 53.2150 140.7000 34° Northeast 573 659 31,000  Level FlightAware ADS-B
Sat 11:59:02 PM 53.2900 140.7840 34° Northeast 573 659 31,000  Level FlightAware ADS-B
Sat 11:59:42 PM 53.3640 140.8680 34° Northeast 573 659 31,000  Level FlightAware ADS-B
Sun 12:00:22 AM 53.4390 140.9530 34° Northeast 573 659 31,000  Level FlightAware ADS-B
Sun 12:01:12 AM 53.5330 141.0590 34° Northeast 573 659 31,000 10 Level FlightAware ADS-B
Sun 12:03:00 AM 53.7443 141.2335 26° Northeast  Level Estimated
Sun 12:04:00 AM 53.8615 141.3312 26° Northeast  Level Estimated
Sun 12:05:00 AM 53.9787 141.4295 26° Northeast  Level Estimated
Sun 12:06:00 AM 54.0959 141.5283 26° Northeast  Level Estimated
Sun 12:07:00 AM 54.2129 141.6277 26° Northeast  Level Estimated
Sun 12:08:00 AM 54.3298 141.7276 26° Northeast  Level Estimated
Sun 12:09:00 AM 54.4467 141.8281 27° Northeast  Level Estimated
Sun 12:10:00 AM 54.5635 141.9292 27° Northeast  Level Estimated
Sun 12:11:00 AM 54.6801 142.0308 27° Northeast  Level Estimated
Sun 12:12:00 AM 54.7968 142.1331 27° Northeast  Level Estimated
Sun 12:13:00 AM 54.9133 142.2359 27° Northeast  Level Estimated
Sun 12:14:00 AM 55.0297 142.3394 27° Northeast  Level Estimated
Sun 12:15:00 AM 55.1460 142.4434 27° Northeast  Level Estimated
Sun 12:16:00 AM 55.2623 142.5480 27° Northeast  Level Estimated
Sun 12:17:00 AM 55.3785 142.6533 27° Northeast  Level Estimated
Sun 12:18:00 AM 55.4945 142.7592 27° Northeast  Level Estimated
Sun 12:19:00 AM 55.6105 142.8657 27° Northeast  Level Estimated
Sun 12:20:00 AM 55.7264 142.9728 27° Northeast  Level Estimated
Sun 12:21:00 AM 55.8422 143.0806 28° Northeast  Level Estimated
Sun 12:22:00 AM 55.9579 143.1890 28° Northeast  Level Estimated
Sun 12:23:00 AM 56.0735 143.2981 28° Northeast  Level Estimated
Sun 12:24:00 AM 56.1890 143.4078 28° Northeast  Level Estimated
Sun 12:25:00 AM 56.3044 143.5182 28° Northeast  Level Estimated
Sun 12:26:00 AM 56.4197 143.6292 28° Northeast  Level Estimated
Sun 12:27:00 AM 56.5350 143.7410 28° Northeast  Level Estimated
Sun 12:28:00 AM 56.6501 143.8534 28° Northeast  Level Estimated
Sun 12:29:00 AM 56.7651 143.9665 28° Northeast  Level Estimated
Sun 12:30:00 AM 56.8800 144.0803 28° Northeast  Level Estimated
Sun 12:31:00 AM 56.9948 144.1948 29° Northeast  Level Estimated
Sun 12:32:00 AM 57.1095 144.3100 29° Northeast  Level Estimated
Sun 12:33:00 AM 57.2241 144.4259 29° Northeast  Level Estimated
Sun 12:34:00 AM 57.3386 144.5425 29° Northeast  Level Estimated
Sun 12:35:00 AM 57.4529 144.6599 29° Northeast  Level Estimated
Sun 12:36:00 AM 57.5672 144.7780 29° Northeast  Level Estimated
Sun 12:37:00 AM 57.6813 144.8969 29° Northeast  Level Estimated
Sun 12:38:00 AM 57.7954 145.0165 29° Northeast  Level Estimated
Sun 12:39:00 AM 57.9093 145.1368 29° Northeast  Level Estimated
Sun 12:40:00 AM 58.0231 145.2579 29° Northeast  Level Estimated
Sun 12:41:00 AM 58.1368 145.3798 29° Northeast  Level Estimated
Sun 12:42:00 AM 58.2504 145.5025 30° Northeast  Level Estimated
Sun 12:43:00 AM 58.3639 145.6260 30° Northeast  Level Estimated
Sun 12:44:00 AM 58.4772 145.7502 30° Northeast  Level Estimated
Sun 12:45:00 AM 58.5904 145.8753 30° Northeast  Level Estimated
Sun 12:46:00 AM 58.7035 146.0012 30° Northeast  Level Estimated
Sun 12:47:00 AM 58.8165 146.1279 30° Northeast  Level Estimated
Sun 12:48:00 AM 58.9294 146.2554 30° Northeast  Level Estimated
Sun 12:49:00 AM 59.0421 146.3838 30° Northeast  Level Estimated
Sun 12:50:00 AM 59.1547 146.5130 30° Northeast  Level Estimated
Sun 12:51:00 AM 59.2672 146.6430 31° Northeast  Level Estimated
Sun 12:52:00 AM 59.3795 146.7739 31° Northeast  Level Estimated
Sun 12:53:00 AM 59.4917 146.9057 31° Northeast  Level Estimated
Sun 12:54:00 AM 59.6038 147.0384 31° Northeast  Level Estimated
Sun 12:55:00 AM 59.7157 147.1720 31° Northeast  Level Estimated
Sun 12:56:00 AM 59.8275 147.3064 31° Northeast  Level Estimated
Sun 12:57:00 AM 59.9392 147.4418 31° Northeast  Level Estimated
Sun 12:58:00 AM 60.0507 147.5780 31° Northeast  Level Estimated
Sun 12:59:00 AM 60.1621 147.7152 31° Northeast  Level Estimated
Sun 01:00:00 AM 60.2733 147.8533 32° Northeast  Level Estimated
Sun 01:01:00 AM 60.3844 147.9924 32° Northeast  Level Estimated
Sun 01:02:00 AM 60.4954 148.1324 32° Northeast  Level Estimated
Sun 01:03:00 AM 60.6062 148.2734 32° Northeast  Level Estimated
Sun 01:04:00 AM 60.7168 148.4153 32° Northeast  Level Estimated
Sun 01:05:00 AM 60.8273 148.5583 32° Northeast  Level Estimated
Sun 01:06:00 AM 60.9377 148.7022 32° Northeast  Level Estimated
Sun 01:07:00 AM 61.0479 148.8471 32° Northeast  Level Estimated
Sun 01:08:00 AM 61.1579 148.9931 33° Northeast  Level Estimated
Sun 01:09:00 AM 61.2678 149.1400 33° Northeast  Level Estimated
Sun 01:10:00 AM 61.3775 149.2880 33° Northeast  Level Estimated
Sun 01:11:00 AM 61.4870 149.4370 33° Northeast  Level Estimated
Sun 01:12:00 AM 61.5964 149.5871 33° Northeast  Level Estimated
Sun 01:13:00 AM 61.7057 149.7382 33° Northeast  Level Estimated
Sun 01:14:00 AM 61.8147 149.8904 33° Northeast  Level Estimated
Sun 01:15:00 AM 61.9236 150.0437 34° Northeast  Level Estimated
Sun 01:16:00 AM 62.0323 150.1981 34° Northeast  Level Estimated
Sun 01:17:00 AM 62.1409 150.3536 34° Northeast  Level Estimated
Sun 01:18:00 AM 62.2493 150.5102 34° Northeast  Level Estimated
Sun 01:19:00 AM 62.3574 150.6680 34° Northeast  Level Estimated
Sun 01:20:00 AM 62.4655 150.8268 34° Northeast  Level Estimated
Sun 01:21:00 AM 62.5733 150.9869 34° Northeast  Level Estimated
Sun 01:22:00 AM 62.6809 151.1481 34° Northeast  Level Estimated
Sun 01:23:00 AM 62.7884 151.3105 35° Northeast  Level Estimated
Sun 01:24:00 AM 62.8957 151.4740 35° Northeast  Level Estimated
Sun 01:25:00 AM 63.0028 151.6388 35° Northeast  Level Estimated
Sun 01:26:00 AM 63.1096 151.8047 35° Northeast  Level Estimated
Sun 01:27:00 AM 63.2163 151.9720 35° Northeast  Level Estimated
Sun 01:28:00 AM 63.3228 152.1404 35° Northeast  Level Estimated
Sun 01:29:00 AM 63.4291 152.3101 36° Northeast  Level Estimated
Sun 01:30:00 AM 63.5352 152.4810 36° Northeast  Level Estimated
Sun 01:31:00 AM 63.6411 152.6533 36° Northeast  Level Estimated
Sun 01:32:00 AM 63.7468 152.8268 36° Northeast  Level Estimated
Sun 01:33:00 AM 63.8523 153.0016 36° Northeast  Level Estimated
Sun 01:34:00 AM 63.9575 153.1777 36° Northeast  Level Estimated
Sun 01:35:00 AM 64.0626 153.3552 36° Northeast  Level Estimated
Sun 01:36:00 AM 64.1674 153.5340 37° Northeast  Level Estimated
Sun 01:37:00 AM 64.2720 153.7141 37° Northeast  Level Estimated
Sun 01:38:00 AM 64.3764 153.8956 37° Northeast  Level Estimated
Sun 01:39:00 AM 64.4805 154.0786 37° Northeast  Level Estimated
Sun 01:40:00 AM 64.5844 154.2628 37° Northeast  Level Estimated
Sun 01:41:00 AM 64.6881 154.4486 37° Northeast  Level Estimated
Sun 01:42:00 AM 64.7916 154.6357 38° Northeast  Level Estimated
Sun 01:43:00 AM 64.8948 154.8243 38° Northeast  Level Estimated
Sun 01:44:00 AM 64.9978 155.0143 38° Northeast  Level Estimated
Sun 01:45:00 AM 65.1005 155.2058 38° Northeast  Level Estimated
Sun 01:46:00 AM 65.2030 155.3988 38° Northeast  Level Estimated
Sun 01:47:00 AM 65.3053 155.5933 38° Northeast  Level Estimated
Sun 01:48:00 AM 65.4073 155.7893 39° Northeast  Level Estimated
Sun 01:49:00 AM 65.5090 155.9868 39° Northeast  Level Estimated
Sun 01:50:00 AM 65.6105 156.1859 39° Northeast  Level Estimated
Sun 01:51:00 AM 65.7117 156.3865 39° Northeast  Level Estimated
Sun 01:52:00 AM 65.8126 156.5887 39° Northeast  Level Estimated
Sun 01:53:00 AM 65.9133 156.7925 40° Northeast  Level Estimated
Sun 01:54:00 AM 66.0137 156.9979 40° Northeast  Level Estimated
Sun 01:55:00 AM 66.1139 157.2049 40° Northeast  Level Estimated
Sun 01:56:00 AM 66.2137 157.4136 40° Northeast  Level Estimated
Sun 01:57:00 AM 66.3133 157.6239 40° Northeast  Level Estimated
Sun 01:58:00 AM 66.4126 157.8358 40° Northeast  Level Estimated
Sun 01:59:00 AM 66.5116 158.0495 41° Northeast  Level Estimated
Sun 02:00:00 AM 66.6103 158.2649 41° Northeast  Level Estimated
Sun 02:01:00 AM 66.7086 158.4820 41° Northeast  Level Estimated
Sun 02:02:00 AM 66.8067 158.7008 41° Northeast  Level Estimated
Sun 02:03:00 AM 66.9045 158.9214 41° Northeast  Level Estimated
Sun 02:04:00 AM 67.0020 159.1437 42° Northeast  Level Estimated
Sun 02:05:00 AM 67.0992 159.3679 42° Northeast  Level Estimated
Sun 02:06:00 AM 67.1961 159.5938 42° Northeast  Level Estimated
Sun 02:07:00 AM 67.2926 159.8216 42° Northeast  Level Estimated
Sun 02:08:00 AM 67.3888 160.0512 42° Northeast  Level Estimated
Sun 02:09:00 AM 67.4847 160.2827 43° Northeast  Level Estimated
Sun 02:10:00 AM 67.5803 160.5160 43° Northeast  Level Estimated
Sun 02:11:00 AM 67.6755 160.7512 43° Northeast  Level Estimated
Sun 02:12:00 AM 67.7703 160.9883 43° Northeast  Level Estimated
Sun 02:13:00 AM 67.8649 161.2274 44° Northeast  Level Estimated
Sun 02:14:00 AM 67.9590 161.4684 44° Northeast  Level Estimated
Sun 02:15:00 AM 68.0528 161.7114 44° Northeast  Level Estimated
Sun 02:16:00 AM 68.1463 161.9563 44° Northeast  Level Estimated
Sun 02:17:00 AM 68.2394 162.2032 44° Northeast  Level Estimated
Sun 02:18:00 AM 68.3321 162.4522 45° Northeast  Level Estimated
Sun 02:19:00 AM 68.4245 162.7032 45° Northeast  Level Estimated
Sun 02:20:00 AM 68.5164 162.9562 45° Northeast  Level Estimated
Sun 02:21:00 AM 68.6080 163.2113 45° Northeast  Level Estimated
Sun 02:22:00 AM 68.6992 163.4685 46° Northeast  Level Estimated
Sun 02:23:00 AM 68.7900 163.7278 46° Northeast  Level Estimated
Sun 02:24:00 AM 68.8804 163.9892 46° Northeast  Level Estimated
Sun 02:25:00 AM 68.9704 164.2527 46° Northeast  Level Estimated
Sun 02:26:00 AM 69.0600 164.5184 47° Northeast  Level Estimated
Sun 02:27:00 AM 69.1492 164.7863 47° Northeast  Level Estimated
Sun 02:28:00 AM 69.2380 165.0564 47° Northeast  Level Estimated
Sun 02:29:00 AM 69.3263 165.3287 47° Northeast  Level Estimated
Sun 02:30:00 AM 69.4142 165.6032 48° Northeast  Level Estimated
Sun 02:31:00 AM 69.5016 165.8800 48° Northeast  Level Estimated
Sun 02:32:00 AM 69.5887 166.1590 48° Northeast  Level Estimated
Sun 02:33:00 AM 69.6752 166.4403 48° Northeast  Level Estimated
Sun 02:34:00 AM 69.7614 166.7240 49° Northeast  Level Estimated
Sun 02:35:00 AM 69.8470 167.0099 49° Northeast  Level Estimated
Sun 02:36:00 AM 69.9322 167.2981 49° Northeast  Level Estimated
Sun 02:37:00 AM 70.0169 167.5887 49° Northeast  Level Estimated
Sun 02:38:00 AM 70.1012 167.8817 50° Northeast  Level Estimated
Sun 02:39:00 AM 70.1850 168.1771 50° Northeast  Level Estimated
Sun 02:40:00 AM 70.2682 168.4748 50° Northeast  Level Estimated
Sun 02:41:00 AM 70.3510 168.7750 51° Northeast  Level Estimated
Sun 02:42:00 AM 70.4333 169.0776 51° Northeast  Level Estimated
Sun 02:43:00 AM 70.5151 169.3826 51° Northeast  Level Estimated
Sun 02:44:00 AM 70.5963 169.6902 51° Northeast  Level Estimated
Sun 02:45:00 AM 70.6770 170.0002 52° Northeast  Level Estimated
Sun 02:46:00 AM 70.7572 170.3126 52° Northeast  Level Estimated
Sun 02:47:00 AM 70.8369 170.6276 52° Northeast  Level Estimated
Sun 02:48:00 AM 70.9160 170.9451 53° Northeast  Level Estimated
Sun 02:49:00 AM 70.9946 171.2652 53° Northeast  Level Estimated
Sun 02:50:00 AM 71.0726 171.5878 53° Northeast  Level Estimated
Sun 02:51:00 AM 71.1501 171.9129 53° Northeast  Level Estimated
Sun 02:52:00 AM 71.2270 172.2407 54° Northeast  Level Estimated
Sun 02:53:00 AM 71.3033 172.5710 54° Northeast  Level Estimated
Sun 02:54:00 AM 71.3790 172.9039 54° Northeast  Level Estimated
Sun 02:55:00 AM 71.4542 173.2395 55° Northeast  Level Estimated
Sun 02:56:00 AM 71.5287 173.5776 55° Northeast  Level Estimated
Sun 02:57:00 AM 71.6027 173.9184 55° Northeast  Level Estimated
Sun 02:58:00 AM 71.6760 174.2619 56° Northeast  Level Estimated
Sun 02:59:00 AM 71.7487 174.6080 56° Northeast  Level Estimated
Sun 03:00:00 AM 71.8208 174.9567 56° Northeast  Level Estimated
Sun 03:01:00 AM 71.8923 175.3082 57° Northeast  Level Estimated
Sun 03:02:00 AM 71.9631 175.6623 57° Northeast  Level Estimated
Sun 03:03:00 AM 72.0332 176.0191 57° Northeast  Level Estimated
Sun 03:04:00 AM 72.1027 176.3786 58° Northeast  Level Estimated
Sun 03:05:00 AM 72.1716 176.7407 58° Northeast  Level Estimated
Sun 03:06:00 AM 72.2397 177.1056 58° Northeast  Level Estimated
Sun 03:07:00 AM 72.3072 177.4732 59° Northeast  Level Estimated
Sun 03:08:00 AM 72.3740 177.8435 59° Northeast  Level Estimated
Sun 03:09:00 AM 72.4401 178.2165 59° Northeast  Level Estimated
Sun 03:10:00 AM 72.5055 178.5923 60° Northeast  Level Estimated
Sun 03:11:00 AM 72.5702 178.9707 60° Northeast  Level Estimated
Sun 03:12:00 AM 72.6342 179.3519 61° Northeast  Level Estimated
Sun 03:13:00 AM 72.6974 179.7358 61° Northeast  Level Estimated
Sun 03:14:00 AM 72.7599 -179.8776 61° Northeast  Level Estimated
Sun 03:15:00 AM 72.8217 -179.4883 62° Northeast  Level Estimated
Sun 03:16:00 AM 72.8827 -179.0963 62° Northeast  Level Estimated
Sun 03:17:00 AM 72.9430 -178.7016 62° Northeast  Level Estimated
Sun 03:18:00 AM 73.0024 -178.3042 63° Northeast  Level Estimated
Sun 03:19:00 AM 73.0611 -177.9041 63° Northeast  Level Estimated
Sun 03:20:00 AM 73.1191 -177.5013 63° Northeast  Level Estimated
Sun 03:21:00 AM 73.1762 -177.0958 64° Northeast  Level Estimated
Sun 03:22:00 AM 73.2325 -176.6877 64° Northeast  Level Estimated
Sun 03:23:00 AM 73.2880 -176.2769 65° Northeast  Level Estimated
Sun 03:24:00 AM 73.3428 -175.8635 65° Northeast  Level Estimated
Sun 03:25:00 AM 73.3966 -175.4474 65° Northeast  Level Estimated
Sun 03:26:00 AM 73.4497 -175.0288 66° East  Level Estimated
Sun 03:26:14 AM 72.0500 -167.4500 68° East 540 621 33,000  Level Anchorage Center
Sun 03:27:00 AM 73.5019 -174.6075 66° East  Level Estimated
Sun 03:27:14 AM 72.0500 -167.0333 90° East 470 541 33,000  Level Anchorage Center
Sun 03:28:00 AM 73.5533 -174.1837 67° East  Level Estimated
Sun 03:28:14 AM 72.0500 -166.6167 90° East 470 541 33,000  Level Anchorage Center
Sun 03:29:00 AM 73.6038 -173.7573 67° East  Level Estimated
Sun 03:29:15 AM 72.0667 -166.2000 82° East 470 541 33,000  Level Anchorage Center
Sun 03:30:00 AM 73.6534 -173.3283 67° East  Level Estimated
Sun 03:30:15 AM 72.0667 -165.7667 90° East 470 541 33,000  Level Anchorage Center
Sun 03:31:00 AM 73.7022 -172.8969 68° East  Level Estimated
Sun 03:31:15 AM 72.0667 -165.3500 90° East 470 541 33,000  Level Anchorage Center
Sun 03:32:15 AM 72.0667 -164.9333 90° East 470 541 33,000  Level Anchorage Center
Sun 03:33:15 AM 72.0833 -164.5000 83° East 470 541 33,000  Level Anchorage Center
Sun 03:34:15 AM 72.0833 -164.0833 90° East 470 541 33,000  Level Anchorage Center
Sun 03:35:15 AM 72.0833 -163.6667 90° East 470 541 33,000  Level Anchorage Center
Sun 03:36:15 AM 72.0833 -163.2333 90° East 470 541 33,000  Level Anchorage Center
Sun 03:37:15 AM 72.0833 -162.8167 90° East 470 541 33,000  Level Anchorage Center
Sun 03:38:15 AM 72.0833 -162.4000 90° East 470 541 33,000  Level Anchorage Center
Sun 03:39:15 AM 72.0833 -161.9667 90° East 480 552 33,000  Level Anchorage Center
Sun 03:40:16 AM 72.0833 -161.5333 90° East 480 552 33,000  Level Anchorage Center
Sun 03:41:16 AM 72.0833 -161.1167 90° East 470 541 33,000  Level Anchorage Center
Sun 03:42:16 AM 72.0667 -160.6833 97° East 480 552 33,000  Level Anchorage Center
Sun 03:43:16 AM 72.0667 -160.2500 90° East 480 552 33,000  Level Anchorage Center
Sun 03:44:16 AM 72.0667 -159.8333 90° East 480 552 33,000  Level Anchorage Center
Sun 03:45:16 AM 72.0500 -159.4000 97° East 480 552 33,000  Level Anchorage Center
Sun 03:46:16 AM 72.0500 -158.9667 90° East 470 541 33,000  Level Anchorage Center
Sun 03:47:17 AM 72.0333 -158.5500 97° East 480 552 33,000  Level Anchorage Center
Sun 03:48:17 AM 72.0167 -158.1167 97° East 480 552 33,000  Level Anchorage Center
Sun 03:49:17 AM 72.0167 -157.6833 90° East 480 552 33,000  Level Anchorage Center
Sun 03:50:17 AM 72.0000 -157.2667 97° East 480 552 33,000  Level Anchorage Center
Sun 03:51:17 AM 72.0000 -156.8333 90° East 470 541 33,000  Level Anchorage Center
Sun 03:52:17 AM 72.0000 -156.4000 90° East 470 541 33,000  Level Anchorage Center
Sun 03:53:17 AM 72.0000 -155.9833 90° East 480 552 33,000  Level Anchorage Center
Sun 03:54:18 AM 72.0000 -155.5500 90° East 480 552 33,000  Level Anchorage Center
Sun 03:55:18 AM 72.0167 -155.1333 82° East 470 541 33,000  Level Anchorage Center
Sun 03:56:18 AM 72.0167 -154.7167 90° East 470 541 33,000  Level Anchorage Center
Sun 03:57:18 AM 72.0167 -154.2833 90° East 480 552 33,000  Level Anchorage Center
Sun 03:58:18 AM 72.0167 -153.8500 90° East 480 552 33,000  Level Anchorage Center
Sun 03:59:18 AM 72.0167 -153.4333 90° East 480 552 33,000  Level Anchorage Center
Sun 04:00:18 AM 72.0167 -153.0833 90° East 490 564 33,000  Level Anchorage Center
Sun 04:01:18 AM 72.0000 -152.6500 97° East 480 552 33,000  Level Anchorage Center
Sun 04:03:19 AM 72.0000 -151.8000 90° East 490 564 33,000  Level Anchorage Center
Sun 04:04:18 AM 71.9833 -151.3667 97° East 480 552 33,000  Level Anchorage Center
Sun 04:05:18 AM 71.9833 -150.9167 90° East 480 552 33,000  Level Anchorage Center
Sun 04:06:19 AM 71.9667 -150.4833 97° East 470 541 33,000  Level Anchorage Center
Sun 04:07:19 AM 71.9667 -150.0833 90° East 460 529 33,000  Level Anchorage Center
Sun 04:08:19 AM 71.9500 -149.6333 97° East 480 552 33,000  Level Anchorage Center
Sun 04:09:19 AM 71.9500 -149.2167 90° East 470 541 33,000  Level Anchorage Center
Sun 04:10:19 AM 71.9333 -148.7833 97° East 480 552 33,000  Level Anchorage Center
Sun 04:11:19 AM 71.9167 -148.3667 97° East 480 552 33,000  Level Anchorage Center
Sun 04:12:19 AM 71.9167 -147.9333 90° East 480 552 33,000  Level Anchorage Center
Sun 04:13:19 AM 71.9000 -147.5167 97° East 480 552 33,000  Level Anchorage Center
Sun 04:14:20 AM 71.8833 -147.1000 97° East 470 541 33,000  Level Anchorage Center
Sun 04:15:20 AM 71.8667 -146.6667 97° East 480 552 33,000  Level Anchorage Center
Sun 04:16:20 AM 71.8500 -146.2667 97° East 470 541 33,000  Level Anchorage Center
Sun 04:17:20 AM 71.8333 -145.8333 97° East 480 552 33,000  Level Anchorage Center
Sun 04:18:20 AM 71.8167 -145.4167 97° East 470 541 33,000  Level Anchorage Center
Sun 04:19:20 AM 71.7833 -145.0000 104° East 480 552 33,000  Level Anchorage Center
Sun 04:21:00 AM 71.7485 -144.2917 99° East  Level FlightAware Approximate
Sun 04:22:21 AM 71.7333 -143.7500 99° East 480 552 33,000  Level Anchorage Center
Sun 04:23:21 AM 71.7000 -143.3333 104° East 480 552 33,000  Level Anchorage Center
Sun 04:24:21 AM 71.6833 -142.9167 97° East 470 541 33,000  Level Anchorage Center
Sun 04:25:21 AM 71.6500 -142.5167 105° East 480 552 33,000  Level Anchorage Center
Sun 04:26:21 AM 71.6333 -142.1000 97° East 480 552 33,000  Level Anchorage Center
Sun 04:27:21 AM 71.6000 -141.7000 105° East 480 552 33,000  Level Anchorage Center
Sun 04:28:22 AM 71.5667 -141.2833 104° East 480 552 33,000  Level Anchorage Center
Sun 04:30:00 AM 71.5379 -140.5951 95° East  Level FlightAware Approximate
Sun 04:32:00 AM 71.5500 -141.0000 95° East 497 572 33,000  Level ETMS Enhanced Traffic Management System
Sun 04:32:17 AM 71.5667 -141.0000 95° East 485 558 33,000  Level Anchorage Center
Sun 04:37:00 AM 71.4236 -137.6502 96° East  Level FlightAware Approximate
Sun 04:38:00 AM 71.4145 -137.1096 99° East 485 558 33,000  Level FlightAware Transoceanic
Sun 04:39:00 AM 71.3927 -136.6815 99° East 485 558 33,000  Level FlightAware Transoceanic
Sun 04:40:00 AM 71.3700 -136.2545 100° East 485 558 33,000  Level FlightAware Transoceanic
Sun 04:41:00 AM 71.3463 -135.8284 100° East 485 558 33,000  Level FlightAware Transoceanic
Sun 04:42:00 AM 71.3216 -135.4034 100° East 485 558 33,000  Level FlightAware Transoceanic
Sun 04:43:00 AM 71.2960 -134.9795 101° East 485 558 33,000  Level FlightAware Transoceanic
Sun 04:44:00 AM 71.2694 -134.5568 101° East 485 558 33,000  Level FlightAware Transoceanic
Sun 04:45:00 AM 71.2419 -134.1352 102° East 485 558 33,000  Level FlightAware Transoceanic
Sun 04:46:00 AM 71.2134 -133.7148 102° East 485 558 33,000  Level FlightAware Transoceanic
Sun 04:47:00 AM 71.1840 -133.2957 102° East 485 558 33,000  Level FlightAware Transoceanic
Sun 04:48:00 AM 71.1537 -132.8779 103° East 485 558 33,000  Level FlightAware Transoceanic
Sun 04:49:00 AM 71.1224 -132.4613 103° East 485 558 33,000  Level FlightAware Transoceanic
Sun 04:50:00 AM 71.0902 -132.0461 104° East 485 558 33,000  Level FlightAware Transoceanic
Sun 04:51:00 AM 71.0571 -131.6323 104° East 485 558 33,000  Level FlightAware Transoceanic
Sun 04:52:00 AM 71.0231 -131.2200 104° East 485 558 33,000  Level FlightAware Transoceanic
Sun 04:53:00 AM 70.9882 -130.8090 105° East 485 558 33,000  Level FlightAware Transoceanic
Sun 04:54:00 AM 70.9524 -130.3995 105° East 485 558 33,000  Level FlightAware Transoceanic
Sun 04:55:00 AM 70.9156 -129.9915 106° East 485 558 33,000  Level FlightAware Transoceanic
Sun 04:56:00 AM 70.8780 -129.5851 106° East 485 558 33,000  Level FlightAware Transoceanic
Sun 04:57:00 AM 70.8395 -129.1802 106° East 485 558 33,000  Level FlightAware Transoceanic
Sun 04:58:00 AM 70.8001 -128.7769 107° East 485 558 33,000  Level FlightAware Transoceanic
Sun 04:59:00 AM 70.7598 -128.3752 107° East 485 558 33,000  Level FlightAware Transoceanic
Sun 05:00:00 AM 70.7187 -127.9751 108° East 485 558 33,000  Level FlightAware Transoceanic
Sun 05:01:00 AM 70.6766 -127.5767 108° East 485 558 33,000  Level FlightAware Transoceanic
Sun 05:02:00 AM 70.6338 -127.1799 108° East 485 558 33,000  Level FlightAware Transoceanic
Sun 05:03:00 AM 70.5900 -126.7849 109° East 485 558 33,000  Level FlightAware Transoceanic
Sun 05:04:00 AM 70.5454 -126.3916 109° East 485 558 33,000 12 Level FlightAware Transoceanic
Sun 05:05:00 AM 70.4995 -126.0132 110° East  Level Estimated
Sun 05:06:00 AM 70.4527 -125.6365 110° East  Level Estimated
Sun 05:07:00 AM 70.4052 -125.2616 111° Southeast  Level Estimated
Sun 05:08:00 AM 70.3569 -124.8884 111° Southeast  Level Estimated
Sun 05:09:00 AM 70.3078 -124.5170 111° Southeast  Level Estimated
Sun 05:10:00 AM 70.2580 -124.1473 112° Southeast  Level Estimated
Sun 05:11:00 AM 70.2074 -123.7795 112° Southeast  Level Estimated
Sun 05:12:00 AM 70.1561 -123.4135 112° Southeast  Level Estimated
Sun 05:13:00 AM 70.1040 -123.0493 113° Southeast  Level Estimated
Sun 05:14:00 AM 70.0512 -122.6870 113° Southeast  Level Estimated
Sun 05:15:00 AM 69.9977 -122.3265 113° Southeast  Level Estimated
Sun 05:16:00 AM 69.9434 -121.9679 114° Southeast  Level Estimated
Sun 05:17:00 AM 69.8884 -121.6111 114° Southeast  Level Estimated
Sun 05:18:00 AM 69.8327 -121.2562 114° Southeast  Level Estimated
Sun 05:19:00 AM 69.7763 -120.9032 115° Southeast  Level Estimated
Sun 05:20:00 AM 69.7192 -120.5521 115° Southeast  Level Estimated
Sun 05:21:00 AM 69.6614 -120.2029 115° Southeast  Level Estimated
Sun 05:22:00 AM 69.6029 -119.8556 116° Southeast  Level Estimated
Sun 05:23:00 AM 69.5437 -119.5102 116° Southeast  Level Estimated
Sun 05:24:00 AM 69.4839 -119.1667 116° Southeast  Level Estimated
Sun 05:25:00 AM 69.4234 -118.8252 117° Southeast  Level Estimated
Sun 05:26:00 AM 69.3622 -118.4856 117° Southeast  Level Estimated
Sun 05:27:00 AM 69.3003 -118.1479 117° Southeast  Level Estimated
Sun 05:28:00 AM 69.2378 -117.8121 118° Southeast  Level Estimated
Sun 05:29:00 AM 69.1747 -117.4783 118° Southeast  Level Estimated
Sun 05:30:00 AM 69.1109 -117.1464 118° Southeast  Level Estimated
Sun 05:31:00 AM 69.0464 -116.8165 119° Southeast  Level Estimated
Sun 05:32:00 AM 68.9814 -116.4885 119° Southeast  Level Estimated
Sun 05:33:00 AM 68.9157 -116.1624 119° Southeast  Level Estimated
Sun 05:34:00 AM 68.8494 -115.8383 119° Southeast  Level Estimated
Sun 05:35:00 AM 68.7825 -115.5161 120° Southeast  Level Estimated
Sun 05:36:00 AM 68.7149 -115.1959 120° Southeast  Level Estimated
Sun 05:37:00 AM 68.6468 -114.8776 120° Southeast  Level Estimated
Sun 05:38:00 AM 68.5781 -114.5613 121° Southeast  Level Estimated
Sun 05:39:00 AM 68.5088 -114.2468 121° Southeast  Level Estimated
Sun 05:40:00 AM 68.4389 -113.9344 121° Southeast  Level Estimated
Sun 05:41:00 AM 68.3684 -113.6238 122° Southeast  Level Estimated
Sun 05:42:00 AM 68.2973 -113.3152 122° Southeast  Level Estimated
Sun 05:43:00 AM 68.2257 -113.0085 122° Southeast  Level Estimated
Sun 05:44:00 AM 68.1535 -112.7037 122° Southeast  Level Estimated
Sun 05:45:00 AM 68.0808 -112.4008 123° Southeast  Level Estimated
Sun 05:46:00 AM 68.0075 -112.0999 123° Southeast  Level Estimated
Sun 05:47:00 AM 67.9336 -111.8009 123° Southeast  Level Estimated
Sun 05:48:00 AM 67.8593 -111.5037 123° Southeast  Level Estimated
Sun 05:49:00 AM 67.7844 -111.2085 124° Southeast  Level Estimated
Sun 05:50:00 AM 67.7089 -110.9151 124° Southeast  Level Estimated
Sun 05:51:00 AM 67.6330 -110.6237 124° Southeast  Level Estimated
Sun 05:52:00 AM 67.5565 -110.3341 125° Southeast  Level Estimated
Sun 05:53:00 AM 67.4795 -110.0464 125° Southeast  Level Estimated
Sun 05:54:00 AM 67.4020 -109.7605 125° Southeast  Level Estimated
Sun 05:55:00 AM 67.3240 -109.4765 125° Southeast  Level Estimated
Sun 05:56:00 AM 67.2455 -109.1944 126° Southeast  Level Estimated
Sun 05:57:00 AM 67.1665 -108.9141 126° Southeast  Level Estimated
Sun 05:58:00 AM 67.0870 -108.6356 126° Southeast  Level Estimated
Sun 05:59:00 AM 67.0070 -108.3590 126° Southeast  Level Estimated
Sun 06:00:00 AM 66.9266 -108.0842 127° Southeast  Level Estimated
Sun 06:01:00 AM 66.8457 -107.8112 127° Southeast  Level Estimated
Sun 06:02:00 AM 66.7643 -107.5400 127° Southeast  Level Estimated
Sun 06:03:00 AM 66.6824 -107.2706 127° Southeast  Level Estimated
Sun 06:04:00 AM 66.6002 -107.0030 128° Southeast  Level Estimated
Sun 06:05:00 AM 66.5174 -106.7371 128° Southeast  Level Estimated
Sun 06:06:00 AM 66.4342 -106.4730 128° Southeast  Level Estimated
Sun 06:07:00 AM 66.3506 -106.2107 128° Southeast  Level Estimated
Sun 06:08:00 AM 66.2665 -105.9501 129° Southeast  Level Estimated
Sun 06:09:00 AM 66.1820 -105.6913 129° Southeast  Level Estimated
Sun 06:10:00 AM 66.0970 -105.4342 129° Southeast  Level Estimated
Sun 06:11:00 AM 66.0116 -105.1788 129° Southeast  Level Estimated
Sun 06:12:00 AM 65.9258 -104.9251 130° Southeast  Level Estimated
Sun 06:13:00 AM 65.8396 -104.6731 130° Southeast  Level Estimated
Sun 06:14:00 AM 65.7530 -104.4228 130° Southeast  Level Estimated
Sun 06:15:00 AM 65.6660 -104.1742 130° Southeast  Level Estimated
Sun 06:16:00 AM 65.5786 -103.9273 131° Southeast  Level Estimated
Sun 06:17:00 AM 65.4908 -103.6820 131° Southeast  Level Estimated
Sun 06:18:00 AM 65.4025 -103.4383 131° Southeast  Level Estimated
Sun 06:19:00 AM 65.3139 -103.1963 131° Southeast  Level Estimated
Sun 06:20:00 AM 65.2249 -102.9559 131° Southeast  Level Estimated
Sun 06:21:00 AM 65.1356 -102.7172 132° Southeast  Level Estimated
Sun 06:22:00 AM 65.0458 -102.4800 132° Southeast  Level Estimated
Sun 06:23:00 AM 64.9557 -102.2445 132° Southeast  Level Estimated
Sun 06:24:00 AM 64.8652 -102.0105 132° Southeast  Level Estimated
Sun 06:25:00 AM 64.7743 -101.7781 132° Southeast  Level Estimated
Sun 06:26:00 AM 64.6831 -101.5472 133° Southeast  Level Estimated
Sun 06:27:00 AM 64.5915 -101.3179 133° Southeast  Level Estimated
Sun 06:28:00 AM 64.4996 -101.0902 133° Southeast  Level Estimated
Sun 06:29:00 AM 64.4073 -100.8640 133° Southeast  Level Estimated
Sun 06:30:00 AM 64.3147 -100.6393 134° Southeast  Level Estimated
Sun 06:31:00 AM 64.2217 -100.4161 134° Southeast  Level Estimated
Sun 06:32:00 AM 64.1284 -100.1944 134° Southeast  Level Estimated
Sun 06:33:00 AM 64.0348 -99.9742 134° Southeast  Level Estimated
Sun 06:34:00 AM 63.9408 -99.7554 134° Southeast  Level Estimated
Sun 06:35:00 AM 63.8465 -99.5382 135° Southeast  Level Estimated
Sun 06:36:00 AM 63.7519 -99.3223 135° Southeast  Level Estimated
Sun 06:37:00 AM 63.6570 -99.1080 135° Southeast  Level Estimated
Sun 06:38:00 AM 63.5617 -98.8950 135° Southeast  Level Estimated
Sun 06:39:00 AM 63.4661 -98.6835 135° Southeast  Level Estimated
Sun 06:40:00 AM 63.3703 -98.4734 135° Southeast  Level Estimated
Sun 06:41:00 AM 63.2741 -98.2647 136° Southeast  Level Estimated
Sun 06:42:00 AM 63.1776 -98.0574 136° Southeast  Level Estimated
Sun 06:43:00 AM 63.0808 -97.8514 136° Southeast  Level Estimated
Sun 06:44:00 AM 62.9837 -97.6469 136° Southeast  Level Estimated
Sun 06:45:00 AM 62.8863 -97.4436 136° Southeast  Level Estimated
Sun 06:46:00 AM 62.7887 -97.2418 137° Southeast  Level Estimated
Sun 06:47:00 AM 62.6907 -97.0412 137° Southeast  Level Estimated
Sun 06:48:00 AM 62.5924 -96.8420 137° Southeast  Level Estimated
Sun 06:49:00 AM 62.4939 -96.6441 137° Southeast  Level Estimated
Sun 06:50:00 AM 62.3951 -96.4475 137° Southeast  Level Estimated
Sun 06:51:00 AM 62.2960 -96.2523 137° Southeast  Level Estimated
Sun 06:52:00 AM 62.1967 -96.0583 138° Southeast  Level Estimated
Sun 06:53:00 AM 62.0971 -95.8655 138° Southeast  Level Estimated
Sun 06:54:00 AM 61.9972 -95.6740 138° Southeast  Level Estimated
Sun 06:55:00 AM 61.8970 -95.4838 138° Southeast  Level Estimated
Sun 06:56:00 AM 61.7966 -95.2948 138° Southeast  Level Estimated
Sun 06:57:00 AM 61.6959 -95.1071 138° Southeast  Level Estimated
Sun 06:58:00 AM 61.5950 -94.9206 139° Southeast  Level Estimated
Sun 06:59:00 AM 61.4939 -94.7353 139° Southeast  Level Estimated
Sun 07:00:00 AM 61.3924 -94.5512 139° Southeast  Level Estimated
Sun 07:01:00 AM 61.2907 -94.3682 139° Southeast  Level Estimated
Sun 07:02:00 AM 61.1888 -94.1865 139° Southeast  Level Estimated
Sun 07:03:00 AM 61.0867 -94.0060 139° Southeast  Level Estimated
Sun 07:04:00 AM 60.9843 -93.8266 140° Southeast  Level Estimated
Sun 07:05:00 AM 60.8816 -93.6483 140° Southeast  Level Estimated
Sun 07:06:00 AM 60.7788 -93.4712 140° Southeast  Level Estimated
Sun 07:07:00 AM 60.6757 -93.2953 140° Southeast  Level Estimated
Sun 07:08:00 AM 60.5723 -93.1204 140° Southeast  Level Estimated
Sun 07:09:00 AM 60.4688 -92.9467 140° Southeast  Level Estimated
Sun 07:10:00 AM 60.3650 -92.7741 141° Southeast  Level Estimated
Sun 07:11:00 AM 60.2610 -92.6026 141° Southeast  Level Estimated
Sun 07:12:00 AM 60.1568 -92.4321 141° Southeast  Level Estimated
Sun 07:13:00 AM 60.0523 -92.2628 141° Southeast  Level Estimated
Sun 07:14:00 AM 59.9477 -92.0945 141° Southeast  Level Estimated
Sun 07:15:00 AM 59.8428 -91.9273 141° Southeast  Level Estimated
Sun 07:16:00 AM 59.7377 -91.7611 141° Southeast  Level Estimated
Sun 07:17:00 AM 59.6324 -91.5960 142° Southeast  Level Estimated
Sun 07:18:00 AM 59.5270 -91.4319 142° Southeast  Level Estimated
Sun 07:19:00 AM 59.4212 -91.2688 142° Southeast  Level Estimated
Sun 07:20:00 AM 59.3153 -91.1068 142° Southeast  Level Estimated
Sun 07:21:00 AM 59.2093 -90.9457 142° Southeast  Level Estimated
Sun 07:22:00 AM 59.1030 -90.7857 142° Southeast  Level Estimated
Sun 07:23:00 AM 58.9965 -90.6266 142° Southeast  Level Estimated
Sun 07:24:00 AM 58.8898 -90.4685 143° Southeast  Level Estimated
Sun 07:25:00 AM 58.7829 -90.3114 143° Southeast  Level Estimated
Sun 07:26:00 AM 58.6758 -90.1553 143° Southeast  Level Estimated
Sun 07:27:00 AM 58.5686 -90.0001 143° Southeast  Level Estimated
Sun 07:28:00 AM 58.4611 -89.8459 143° Southeast  Level Estimated
Sun 07:29:00 AM 58.3535 -89.6926 143° Southeast  Level Estimated
Sun 07:30:00 AM 58.2457 -89.5402 143° Southeast  Level Estimated
Sun 07:31:00 AM 58.1377 -89.3888 143° Southeast  Level Estimated
Sun 07:32:00 AM 58.0295 -89.2383 144° Southeast  Level Estimated
Sun 07:33:00 AM 57.9212 -89.0887 144° Southeast  Level Estimated
Sun 07:34:00 AM 57.8127 -88.9399 144° Southeast  Level Estimated
Sun 07:35:00 AM 57.7040 -88.7921 144° Southeast  Level Estimated
Sun 07:36:00 AM 57.5951 -88.6452 144° Southeast  Level Estimated
Sun 07:37:00 AM 57.4861 -88.4992 144° Southeast  Level Estimated
Sun 07:38:00 AM 57.3769 -88.3540 144° Southeast  Level Estimated
Sun 07:39:00 AM 57.2675 -88.2096 144° Southeast  Level Estimated
Sun 07:40:00 AM 57.1580 -88.0662 145° Southeast  Level Estimated
Sun 07:41:00 AM 57.0483 -87.9236 145° Southeast  Level Estimated
Sun 07:42:00 AM 56.9384 -87.7818 145° Southeast  Level Estimated
Sun 07:43:00 AM 56.8284 -87.6408 145° Southeast  Level Estimated
Sun 07:44:00 AM 56.7183 -87.5007 145° Southeast  Level Estimated
Sun 07:45:00 AM 56.6079 -87.3614 145° Southeast  Level Estimated
Sun 07:46:00 AM 56.4975 -87.2229 145° Southeast  Level Estimated
Sun 07:46:33 AM 57.3000 -87.6500 146° Southeast 540 621 35,000  Level Edmonton Center
Sun 07:47:00 AM 56.3868 -87.0853 145° Southeast  Level Estimated
Sun 07:47:33 AM 57.2000 -87.5500 152° Southeast 520 598 35,000  Level Edmonton Center
Sun 07:48:00 AM 56.2760 -86.9484 146° Southeast  Level Estimated
Sun 07:48:33 AM 57.1000 -87.4000 141° Southeast 500 575 35,000  Level Edmonton Center
Sun 07:49:00 AM 56.1651 -86.8123 146° Southeast  Level Estimated
Sun 07:49:33 AM 56.9833 -87.2333 142° Southeast 500 575 35,000  Level Edmonton Center
Sun 07:50:00 AM 56.0540 -86.6770 146° Southeast  Level Estimated
Sun 07:50:33 AM 56.8667 -87.0667 142° Southeast 500 575 35,000  Level Edmonton Center
Sun 07:51:00 AM 55.9428 -86.5424 146° Southeast  Level Estimated
Sun 07:51:33 AM 56.7667 -86.9333 144° Southeast 500 575 35,000  Level Edmonton Center
Sun 07:52:00 AM 55.8314 -86.4087 146° Southeast  Level Estimated
Sun 07:52:33 AM 56.6500 -86.8000 148° Southeast 500 575 35,000  Level Edmonton Center
Sun 07:53:33 AM 56.5500 -86.6333 137° Southeast 500 575 35,000  Level Edmonton Center
Sun 07:54:33 AM 56.4333 -86.4667 142° Southeast 500 575 35,000  Level Edmonton Center
Sun 07:55:33 AM 56.3000 -86.3333 151° Southeast 500 575 35,000  Level Edmonton Center
Sun 07:56:33 AM 56.2000 -86.2000 143° Southeast 490 564 35,000  Level Edmonton Center
Sun 07:57:33 AM 56.0833 -86.0500 144° Southeast 500 575 35,000  Level Edmonton Center
Sun 07:58:33 AM 55.9667 -85.8833 141° Southeast 500 575 35,000  Level Edmonton Center
Sun 07:59:33 AM 55.8667 -85.7500 143° Southeast 490 564 35,000  Level Edmonton Center
Sun 08:00:33 AM 55.7500 -85.6000 144° Southeast 500 575 35,000  Level Edmonton Center
Sun 08:01:33 AM 55.6333 -85.4667 147° Southeast 500 575 35,000  Level Edmonton Center
Sun 08:02:33 AM 55.5167 -85.3167 144° Southeast 500 575 35,000  Level Edmonton Center
Sun 08:03:33 AM 55.4167 -85.1500 137° Southeast 500 575 35,000  Level Edmonton Center
Sun 08:04:33 AM 55.2833 -85.0167 150° Southeast 510 587 35,000  Level Edmonton Center
Sun 08:05:33 AM 55.1667 -84.8833 147° Southeast 500 575 35,000  Level Edmonton Center
Sun 08:06:33 AM 55.0500 -84.7333 144° Southeast 500 575 35,000  Level Edmonton Center
Sun 08:07:33 AM 54.9500 -84.6000 143° Southeast 500 575 35,000  Level Edmonton Center
Sun 08:08:33 AM 54.8333 -84.4500 143° Southeast 500 575 35,000  Level Edmonton Center
Sun 08:09:33 AM 54.7167 -84.3000 143° Southeast 510 587 35,000  Level Edmonton Center
Sun 08:10:33 AM 54.6000 -84.1833 150° Southeast 510 587 35,000  Level Edmonton Center
Sun 08:11:33 AM 54.4833 -84.0333 143° Southeast 510 587 35,000  Level Edmonton Center
Sun 08:12:33 AM 54.3500 -83.9000 150° Southeast 510 587 35,000  Level Edmonton Center
Sun 08:13:33 AM 54.2500 -83.7667 142° Southeast 500 575 35,000  Level Edmonton Center
Sun 08:14:33 AM 54.1333 -83.6333 146° Southeast 510 587 35,000  Level Edmonton Center
Sun 08:15:33 AM 54.0167 -83.5000 146° Southeast 500 575 35,000  Level Edmonton Center
Sun 08:16:33 AM 53.9000 -83.3667 146° Southeast 510 587 35,000  Level Edmonton Center
Sun 08:17:33 AM 53.7833 -83.2167 143° Southeast 500 575 35,000  Level Edmonton Center
Sun 08:18:33 AM 53.6500 -83.0833 149° Southeast 510 587 35,000  Level Edmonton Center
Sun 08:19:33 AM 53.5333 -82.9333 143° Southeast 510 587 35,000  Level Edmonton Center
Sun 08:20:33 AM 53.4333 -82.8333 149° Southeast 510 587 35,000  Level Edmonton Center
Sun 08:21:33 AM 53.3167 -82.6833 142° Southeast 510 587 35,000  Level Edmonton Center
Sun 08:22:33 AM 53.2000 -82.5500 146° Southeast 510 587 35,000  Level Edmonton Center
Sun 08:23:33 AM 53.0833 -82.4333 149° Southeast 510 587 35,000  Level Edmonton Center
Sun 08:24:33 AM 52.9667 -82.3000 145° Southeast 510 587 35,000  Level Edmonton Center
Sun 08:25:33 AM 52.8500 -82.1500 142° Southeast 510 587 35,000  Level Edmonton Center
Sun 08:26:33 AM 52.7167 -82.0500 156° South 510 587 35,000  Level Edmonton Center
Sun 08:27:33 AM 52.6000 -81.9167 145° Southeast 510 587 35,000  Level Edmonton Center
Sun 08:28:33 AM 52.4833 -81.7833 145° Southeast 510 587 35,000  Level Edmonton Center
Sun 08:29:33 AM 52.3667 -81.6500 145° Southeast 500 575 35,000  Level Edmonton Center
Sun 08:30:33 AM 52.2500 -81.5333 149° Southeast 500 575 35,000  Level Edmonton Center
Sun 08:31:33 AM 52.1167 -81.4167 152° Southeast 500 575 35,000  Level Edmonton Center
Sun 08:32:33 AM 52.0167 -81.3000 144° Southeast 500 575 35,000  Level Edmonton Center
Sun 08:33:33 AM 51.9000 -81.1667 145° Southeast 500 575 35,000  Level Edmonton Center
Sun 08:34:33 AM 51.7833 -81.0667 152° Southeast 490 564 35,000  Level Edmonton Center
Sun 08:35:33 AM 51.6833 -80.9333 140° Southeast 490 564 35,000  Level Edmonton Center
Sun 08:36:33 AM 51.5500 -80.8333 155° Southeast 490 564 35,000  Level Edmonton Center
Sun 08:37:33 AM 51.4500 -80.7167 144° Southeast 490 564 35,000  Level Edmonton Center
Sun 08:38:33 AM 51.3333 -80.5833 144° Southeast 480 552 35,000  Level Edmonton Center
Sun 08:39:33 AM 51.2167 -80.4833 152° Southeast 490 564 35,000  Level Edmonton Center
Sun 08:40:33 AM 51.1000 -80.3333 141° Southeast 490 564 35,000  Level Edmonton Center
Sun 08:41:33 AM 51.0000 -80.2167 144° Southeast 500 575 35,000  Level Edmonton Center
Sun 08:43:00 AM 50.8424 -80.0409 145° Southeast  Level FlightAware Approximate
Sun 08:50:00 AM 50.0809 -79.2005 144° Southeast  Level FlightAware Approximate
Sun 08:51:00 AM 49.9727 -79.0805 144° Southeast  Level FlightAware Approximate
Sun 08:52:00 AM 49.8644 -78.9609 145° Southeast  Level FlightAware Approximate
Sun 08:53:00 AM 49.7560 -78.8419 145° Southeast  Level FlightAware Approximate
Sun 08:54:00 AM 49.6474 -78.7234 145° Southeast  Level FlightAware Approximate
Sun 08:55:00 AM 49.5387 -78.6055 145° Southeast  Level FlightAware Approximate
Sun 08:56:00 AM 49.4299 -78.4881 145° Southeast  Level FlightAware Approximate
Sun 08:57:00 AM 49.3210 -78.3712 145° Southeast  Level FlightAware Approximate
Sun 08:58:00 AM 49.2120 -78.2548 145° Southeast  Level FlightAware Approximate
Sun 08:59:00 AM 49.1028 -78.1389 145° Southeast  Level FlightAware Approximate
Sun 09:00:00 AM 48.9936 -78.0235 145° Southeast  Level FlightAware Approximate
Sun 09:01:00 AM 48.8842 -77.9087 145° Southeast  Level FlightAware Approximate
Sun 09:02:00 AM 48.7747 -77.7943 145° Southeast  Level FlightAware Approximate
Sun 09:03:00 AM 48.6651 -77.6804 146° Southeast  Level FlightAware Approximate
Sun 09:04:00 AM 48.5555 -77.5668 146° Southeast  Level FlightAware Approximate
Sun 09:05:00 AM 48.4458 -77.4537 146° Southeast  Level FlightAware Approximate
Sun 09:06:00 AM 48.3359 -77.3411 146° Southeast  Level FlightAware Approximate
Sun 09:07:00 AM 48.2260 -77.2289 146° Southeast  Level FlightAware Approximate
Sun 09:08:00 AM 48.1160 -77.1173 146° Southeast  Level FlightAware Approximate
Sun 09:09:00 AM 48.0058 -77.0061 146° Southeast  Level FlightAware Approximate
Sun 09:10:00 AM 47.8951 -76.8962 147° Southeast  Level FlightAware Approximate
Sun 09:11:00 AM 47.7840 -76.7876 147° Southeast  Level FlightAware Approximate
Sun 09:12:00 AM 47.6728 -76.6795 147° Southeast  Level FlightAware Approximate
Sun 09:13:00 AM 47.5615 -76.5719 147° Southeast  Level FlightAware Approximate
Sun 09:14:00 AM 47.4501 -76.4647 147° Southeast  Level FlightAware Approximate
Sun 09:15:00 AM 47.3391 -76.3569 146° Southeast  Level FlightAware Approximate
Sun 09:16:00 AM 47.2283 -76.2487 146° Southeast  Level FlightAware Approximate
Sun 09:17:00 AM 47.1174 -76.1410 147° Southeast  Level FlightAware Approximate
Sun 09:17:58 AM 47.1060 -76.1210 147° Southeast 464 534 35,000  Level FlightAware ADS-B
Sun 09:18:00 AM 47.0064 -76.0337 147° Southeast  Level FlightAware Approximate
Sun 09:18:38 AM 47.0360 -76.0530 146° Southeast 464 534 35,000  Level FlightAware ADS-B
Sun 09:19:23 AM 46.9610 -75.9800 146° Southeast 463 533 35,000  Level FlightAware ADS-B
Sun 09:20:03 AM 46.8840 -75.9080 147° Southeast 464 534 35,000  Level FlightAware ADS-B
Sun 09:20:43 AM 46.8130 -75.8400 147° Southeast 465 535 35,000  Level FlightAware ADS-B
Sun 09:21:28 AM 46.7290 -75.7600 147° Southeast 467 537 35,000  Level FlightAware ADS-B
Sun 09:22:08 AM 46.6560 -75.6910 147° Southeast 468 539 35,000  Level FlightAware ADS-B
Sun 09:22:48 AM 46.5860 -75.6240 147° Southeast 468 539 35,000  Level FlightAware ADS-B
Sun 09:23:33 AM 46.5070 -75.5500 147° Southeast 467 537 35,000  Level FlightAware ADS-B
Sun 09:24:13 AM 46.4320 -75.4800 147° Southeast 468 539 35,000  Level FlightAware ADS-B
Sun 09:25:03 AM 46.3470 -75.4010 147° Southeast 468 539 35,000  Level FlightAware ADS-B
Sun 09:25:53 AM 46.2580 -75.3180 147° Southeast 471 542 35,000  Level FlightAware ADS-B
Sun 09:26:33 AM 46.1830 -75.2480 147° Southeast 471 542 35,000  Level FlightAware ADS-B
Sun 09:27:13 AM 46.1090 -75.1790 147° Southeast 471 542 35,000  Level FlightAware ADS-B
Sun 09:27:58 AM 46.0330 -75.1090 147° Southeast 474 545 35,000  Level FlightAware ADS-B
Sun 09:28:38 AM 45.9490 -75.0330 148° Southeast 475 547 35,000  Level FlightAware ADS-B
Sun 09:29:23 AM 45.8710 -74.9610 147° Southeast 472 543 35,000  Level FlightAware ADS-B
Sun 09:29:58 AM 45.8000 -74.8960 147° Southeast 473 544 35,000  Level FlightAware ADS-B
Sun 09:30:48 AM 45.7130 -74.8170 148° Southeast 471 542 35,000  Level FlightAware ADS-B
Sun 09:31:28 AM 45.6360 -74.7470 148° Southeast 469 540 35,000  Level FlightAware ADS-B
Sun 09:32:03 AM 45.5730 -74.6900 148° Southeast 470 541 35,000  Level FlightAware ADS-B
Sun 09:32:53 AM 45.4830 -74.6090 148° Southeast 471 542 35,000  Level FlightAware ADS-B
Sun 09:33:28 AM 45.4160 -74.5490 148° Southeast 471 542 35,000  Level FlightAware ADS-B
Sun 09:34:18 AM 45.3290 -74.4720 148° Southeast 471 542 35,000  Level FlightAware ADS-B
Sun 09:34:58 AM 45.2490 -74.4000 148° Southeast 470 541 35,000  Level FlightAware ADS-B
Sun 09:35:43 AM 45.1720 -74.3310 148° Southeast 467 537 35,000  Level FlightAware ADS-B
Sun 09:36:23 AM 45.0940 -74.2620 148° Southeast 467 537 35,000  Level FlightAware ADS-B
Sun 09:37:18 AM 44.9910 -74.2030 158° South 448 516 35,000  Level FlightAware ADS-B
Sun 09:37:58 AM 44.9030 -74.1830 171° South 449 517 35,000  Level FlightAware ADS-B
Sun 09:38:43 AM 44.8180 -74.1630 171° South 450 518 35,000  Level FlightAware ADS-B
Sun 09:39:23 AM 44.7320 -74.1440 171° South 450 518 35,000  Level FlightAware ADS-B
Sun 09:39:58 AM 44.6580 -74.1290 172° South 448 516 35,000  Level FlightAware ADS-B
Sun 09:40:48 AM 44.5590 -74.1140 174° South 448 516 35,000 -71 Level FlightAware ADS-B
Sun 09:41:23 AM 44.4840 -74.1020 173° South 446 513 34,900 -706 Descending FlightAware ADS-B
Sun 09:42:13 AM 44.3870 -74.0850 173° South 451 519 34,000 -568 Descending FlightAware ADS-B
Sun 09:42:58 AM 44.2900 -74.0680 173° South 454 522 34,000  Level FlightAware ADS-B
Sun 09:43:48 AM 44.1770 -74.0490 173° South 453 521 34,000  Level FlightAware ADS-B
Sun 09:44:33 AM 44.0860 -74.0340 173° South 455 524 34,000  Level FlightAware ADS-B
Sun 09:45:18 AM 43.9900 -74.0180 173° South 455 524 34,000  Level FlightAware ADS-B
Sun 09:45:58 AM 43.9070 -74.0040 173° South 454 522 34,000  Level FlightAware ADS-B
Sun 09:46:38 AM 43.8240 -73.9910 174° South 456 525 34,000  Level FlightAware ADS-B
Sun 09:47:18 AM 43.7390 -73.9770 173° South 456 525 34,000  Level FlightAware ADS-B
Sun 09:48:03 AM 43.6470 -73.9610 173° South 457 526 34,000  Level FlightAware ADS-B
Sun 09:48:43 AM 43.5630 -73.9460 173° South 458 527 34,000  Level FlightAware ADS-B
Sun 09:49:28 AM 43.4790 -73.9300 172° South 458 527 34,000  Level FlightAware ADS-B
Sun 09:50:13 AM 43.3720 -73.9120 173° South 458 527 34,000  Level FlightAware ADS-B
Sun 09:50:53 AM 43.2900 -73.8980 173° South 459 528 34,000  Level FlightAware ADS-B
Sun 09:51:33 AM 43.2060 -73.8830 173° South 460 529 34,000  Level FlightAware ADS-B
Sun 09:52:18 AM 43.1110 -73.8660 173° South 461 531 34,000  Level FlightAware ADS-B
Sun 09:52:58 AM 43.0220 -73.8510 173° South 462 532 34,000  Level FlightAware ADS-B
Sun 09:53:43 AM 42.9280 -73.8350 173° South 463 533 34,000  Level FlightAware ADS-B
Sun 09:54:23 AM 42.8470 -73.8200 172° South 462 532 34,000  Level FlightAware ADS-B
Sun 09:55:03 AM 42.7590 -73.8070 174° South 459 528 34,000  Level FlightAware ADS-B
Sun 09:55:43 AM 42.6760 -73.8040 178° South 456 525 34,000 -212 Level FlightAware ADS-B
Sun 09:56:28 AM 42.5780 -73.8060 181° South 455 524 33,700 -867 Descending FlightAware ADS-B
Sun 09:57:13 AM 42.4870 -73.8080 181° South 458 527 32,700 -918 Descending FlightAware ADS-B
Sun 09:57:53 AM 42.4080 -73.8090 181° South 459 528 32,400 -225 Descending FlightAware ADS-B
Sun 09:58:33 AM 42.3360 -73.8090 180° South 459 528 32,400  Level FlightAware ADS-B
Sun 09:59:13 AM 42.2640 -73.8090 180° South 459 528 32,400  Level FlightAware ADS-B
Sun 09:59:53 AM 42.1910 -73.8090 180° South 459 528 32,400 -2,096 Level FlightAware ADS-B
Sun 10:00:36 AM 42.0538 -73.8156 182° South 448 516 29,500 -2,333 Descending FlightAware ADS-B
Sun 10:01:23 AM 41.9630 -73.8180 181° South 445 512 28,900 -783 Descending FlightAware ADS-B
Sun 10:02:08 AM 41.8700 -73.8370 189° South 432 497 28,300 -857 Descending FlightAware ADS-B
Sun 10:02:26 AM 41.8315 -73.8537 198° South 438 504 28,000 -844 Descending FlightAware ADS-B
Sun 10:03:12 AM 41.7481 -73.8942 200° South 438 504 27,400 -1,034 Descending FlightAware ADS-B
Sun 10:03:24 AM 41.7262 -73.9048 200° South 421 484 27,000 -2,233 Descending FlightAware ADS-B
Sun 10:03:55 AM 41.6690 -73.9320 200° South 438 504 25,800 -2,206 Descending FlightAware ADS-B
Sun 10:04:32 AM 41.6037 -73.9626 199° South 405 466 24,500 -2,137 Descending FlightAware ADS-B
Sun 10:05:08 AM 41.5401 -73.9919 199° South 399 459 23,200 -2,143 Descending FlightAware ADS-B
Sun 10:05:42 AM 41.4817 -74.0190 199° South 392 451 22,000 -2,123 Descending FlightAware ADS-B
Sun 10:06:13 AM 41.4279 -74.0434 199° South 388 447 20,900 -1,522 Descending FlightAware ADS-B
Sun 10:06:49 AM 41.3666 -74.0636 194° South 383 441 20,300 -818 Descending FlightAware ADS-B
Sun 10:07:19 AM 41.3144 -74.0728 188° South 379 436 20,000 -290 Descending FlightAware ADS-B
Sun 10:07:51 AM 41.2585 -74.0805 186° South 380 437 20,000  Level FlightAware ADS-B
Sun 10:08:24 AM 41.2008 -74.0890 186° South 380 437 20,000 -286 Level FlightAware ADS-B
Sun 10:08:54 AM 41.1479 -74.0975 187° South 379 436 19,700 -698 Descending FlightAware ADS-B
Sun 10:09:07 AM 41.1259 -74.1011 187° South 379 436 19,500 -774 Descending FlightAware ADS-B
Sun 10:09:25 AM 41.0946 -74.1063 187° South 379 436 19,300 -774 Descending FlightAware ADS-B
Sun 10:09:38 AM 41.0717 -74.1100 187° South 377 434 19,100 -563 Descending FlightAware ADS-B
Sun 10:09:57 AM 41.0399 -74.1152 187° South 363 418 19,000 -200 Descending FlightAware ADS-B
Sun 10:10:08 AM 41.0214 -74.1181 187° South 351 404 19,000  Level FlightAware ADS-B
Sun 10:10:31 AM 40.9873 -74.1235 187° South 328 377 19,000  Level FlightAware ADS-B
Sun 10:10:51 AM 40.9569 -74.1264 184° South 321 369 19,000  Level FlightAware ADS-B
Sun 10:10:53 AM 40.9539 -74.1262 177° South 326 375 19,000  Level FlightAware ADS-B
Sun 10:11:05 AM 40.9365 -74.1232 173° South 322 371 19,000 -414 Level FlightAware ADS-B
Sun 10:11:22 AM 40.9115 -74.1178 171° South 320 368 18,800 -1,091 Descending FlightAware ADS-B
Sun 10:11:38 AM 40.8886 -74.1127 170° South 318 366 18,400 -1,548 Descending FlightAware ADS-B
Sun 10:11:53 AM 40.8656 -74.1076 170° South 319 367 18,000 -1,313 Descending FlightAware ADS-B
Sun 10:12:10 AM 40.8419 -74.1022 170° South 317 365 17,700 -1,313 Descending FlightAware ADS-B
Sun 10:12:25 AM 40.8200 -74.0970 170° South 316 364 17,300 -1,500 Descending FlightAware ADS-B
Sun 10:12:42 AM 40.7962 -74.0915 170° South 314 361 16,900 -1,400 Descending FlightAware ADS-B
Sun 10:12:55 AM 40.7768 -74.0870 170° South 313 360 16,600 -1,200 Descending FlightAware ADS-B
Sun 10:13:17 AM 40.7465 -74.0801 170° South 308 354 16,200 -1,125 Descending FlightAware ADS-B
Sun 10:13:27 AM 40.7323 -74.0769 170° South 305 351 16,000 -1,200 Descending FlightAware ADS-B
Sun 10:13:57 AM 40.6903 -74.0676 170° South 301 346 15,400 -1,200 Descending FlightAware ADS-B
Sun 10:14:02 AM 40.6837 -74.0661 170° South 302 348 15,300 -1,600 Descending FlightAware ADS-B
Sun 10:14:27 AM 40.6488 -74.0582 170° South 303 349 14,600 -1,552 Descending FlightAware ADS-B
Sun 10:15:00 AM 40.6045 -74.0479 170° South 301 346 13,800 -1,333 Descending FlightAware ADS-B
Sun 10:15:12 AM 40.5880 -74.0429 167° South 302 348 13,600 -1,000 Descending FlightAware ADS-B
Sun 10:15:18 AM 40.5805 -74.0389 158° South 305 351 13,500 -1,500 Descending FlightAware ADS-B
Sun 10:15:24 AM 40.5726 -74.0336 153° Southeast 306 352 13,300 -1,440 Descending FlightAware ADS-B
Sun 10:15:43 AM 40.5491 -74.0157 150° Southeast 306 352 12,900 -706 Descending FlightAware ADS-B
Sun 10:16:15 AM 40.5098 -73.9859 150° Southeast 305 351 12,700 -677 Descending FlightAware ADS-B
Sun 10:16:45 AM 40.4734 -73.9584 150° Southeast 299 344 12,200 -1,770 Descending FlightAware ADS-B
Sun 10:17:16 AM 40.4372 -73.9315 151° Southeast 294 338 10,900 -2,550 Descending FlightAware ADS-B
Sun 10:17:25 AM 40.4270 -73.9219 144° Southeast 297 342 10,500 -2,471 Descending FlightAware ADS-B
Sun 10:17:33 AM 40.4197 -73.9111 132° Southeast 298 343 10,200 -2,571 Descending FlightAware ADS-B
Sun 10:17:39 AM 40.4153 -73.9016 121° Southeast 298 343 9,900 -3,000 Descending FlightAware ADS-B
Sun 10:17:43 AM 40.4129 -73.8951 116° Southeast 298 343 9,700 -2,667 Descending FlightAware ADS-B
Sun 10:17:48 AM 40.4105 -73.8878 113° Southeast 298 343 9,500 -3,000 Descending FlightAware ADS-B
Sun 10:18:05 AM 40.4011 -73.8580 112° Southeast 300 345 8,600 -3,000 Descending FlightAware ADS-B
Sun 10:18:22 AM 40.3922 -73.8299 113° Southeast 299 344 7,800 -2,625 Descending FlightAware ADS-B
Sun 10:18:37 AM 40.3839 -73.8047 113° Southeast 297 342 7,200 -2,438 Descending FlightAware ADS-B
Sun 10:18:54 AM 40.3747 -73.7766 113° Southeast 291 335 6,500 -2,471 Descending FlightAware ADS-B
Sun 10:19:11 AM 40.3668 -73.7506 112° Southeast 289 333 5,800 -2,609 Descending FlightAware ADS-B
Sun 10:19:17 AM 40.3649 -73.7392 102° East 292 336 5,500 -2,308 Descending FlightAware ADS-B
Sun 10:19:24 AM 40.3648 -73.7261 91° East 293 337 5,300 -1,615 Descending FlightAware ADS-B
Sun 10:19:43 AM 40.3723 -73.6954 72° East 292 336 4,800 -1,286 Descending FlightAware ADS-B
Sun 10:20:06 AM 40.3860 -73.6579 64° Northeast 290 334 4,400 -880 Descending FlightAware ADS-B
Sun 10:20:58 AM 40.4190 -73.5830 60° Northeast 275 316 3,700 -512 Descending FlightAware ADS-B
Sun 10:21:28 AM 40.4500 -73.5610 28° Northeast 265 305 3,700 -109 Level FlightAware ADS-B
Sun 10:21:53 AM 40.4780 -73.5430 26° Northeast 263 303 3,600 -450 Descending FlightAware ADS-B
Sun 10:22:08 AM 40.4950 -73.5390 10° North 255 293 3,400 -900 Descending FlightAware ADS-B
Sun 10:22:53 AM 40.5480 -73.5400 359° North 256 295 2,700 -600 Descending FlightAware ADS-B
Sun 10:23:18 AM 40.5780 -73.5410 359° North 257 296 2,700 -436 Level FlightAware ADS-B
Sun 10:23:48 AM 40.6140 -73.5420 359° North 254 292 2,300 -873 Descending FlightAware ADS-B
Sun 10:24:13 AM 40.6420 -73.5430 358° North 248 285 1,900 -655 Descending FlightAware ADS-B
Sun 10:24:43 AM 40.6760 -73.5470 355° North 238 274 1,700 -267 Descending FlightAware ADS-B
Sun 10:24:58 AM 40.6900 -73.5570 332° Northwest 226 260 1,700  Level FlightAware ADS-B
Sun 10:25:13 AM 40.7000 -73.5670 323° Northwest 211 243 1,700  Level FlightAware ADS-B
Sun 10:25:38 AM 40.7210 -73.5880 323° Northwest 200 230 1,700  Level FlightAware ADS-B
Sun 10:26:08 AM 40.7430 -73.6110 322° Northwest 198 228 1,700  Level FlightAware ADS-B
Sun 10:26:23 AM 40.7520 -73.6220 317° Northwest 196 226 1,700  Level FlightAware ADS-B
Sun 10:26:33 AM 40.7560 -73.6330 296° West 185 213 1,700  Level FlightAware ADS-B
Sun 10:27:03 AM 40.7510 -73.6640 258° West 172 198 1,700  Level FlightAware ADS-B
Sun 10:27:18 AM 40.7460 -73.6750 239° Southwest 160 184 1,700  Level FlightAware ADS-B
Sun 10:27:43 AM 40.7310 -73.6880 213° Southwest 141 162 1,700 -436 Level FlightAware ADS-B
Sun 10:28:13 AM 40.7140 -73.7010 210° Southwest 135 155 1,300 -764 Descending FlightAware ADS-B
Sun 10:28:38 AM 40.7010 -73.7120 213° Southwest 132 152 1,000 -764 Descending FlightAware ADS-B
Sun 10:29:08 AM 40.6840 -73.7240 208° Southwest 137 158 600 -700 Descending FlightAware ADS-B
Sun 10:29:38 AM 40.6680 -73.7370 212° Southwest 137 158 300 -600 Descending FlightAware ADS-B
Sun 10:30:03 AM 40.6550 -73.7470 210° Southwest 134 154 -720 Descending FlightAware ADS-B

Login

Don't have an account? Register now (free) for customized features, flight alerts, and more!